sensor_id;sensor_type;location;lat;lon;timestamp;temperature;humidity
70708;SHT30;58277;47.316;18.908;2022-09-09T00:00:37;18.62;88.90
70708;SHT30;58277;47.316;18.908;2022-09-09T00:03:26;18.52;88.96
70708;SHT30;58277;47.316;18.908;2022-09-09T00:08:19;18.40;88.94
70708;SHT30;58277;47.316;18.908;2022-09-09T00:10:42;18.40;88.91
70708;SHT30;58277;47.316;18.908;2022-09-09T00:18:17;18.44;88.17
70708;SHT30;58277;47.316;18.908;2022-09-09T00:20:48;18.30;88.06
70708;SHT30;58277;47.316;18.908;2022-09-09T00:23:30;18.28;88.32
70708;SHT30;58277;47.316;18.908;2022-09-09T00:31:23;18.21;87.65
70708;SHT30;58277;47.316;18.908;2022-09-09T00:33:48;18.14;87.99
70708;SHT30;58277;47.316;18.908;2022-09-09T00:36:18;18.11;87.98
70708;SHT30;58277;47.316;18.908;2022-09-09T00:38:51;18.09;88.19
70708;SHT30;58277;47.316;18.908;2022-09-09T00:41:21;18.07;87.78
70708;SHT30;58277;47.316;18.908;2022-09-09T00:44:31;18.13;88.01
70708;SHT30;58277;47.316;18.908;2022-09-09T00:50:00;18.06;88.07
70708;SHT30;58277;47.316;18.908;2022-09-09T00:57:42;18.09;88.70
70708;SHT30;58277;47.316;18.908;2022-09-09T01:00:27;18.06;88.44
70708;SHT30;58277;47.316;18.908;2022-09-09T01:03:21;18.03;88.64
70708;SHT30;58277;47.316;18.908;2022-09-09T01:17:00;18.00;88.65
70708;SHT30;58277;47.316;18.908;2022-09-09T01:19:40;18.04;88.36
70708;SHT30;58277;47.316;18.908;2022-09-09T01:28:13;17.97;88.67
70708;SHT30;58277;47.316;18.908;2022-09-09T01:30:40;17.90;88.68
70708;SHT30;58277;47.316;18.908;2022-09-09T01:33:12;17.93;88.73
70708;SHT30;58277;47.316;18.908;2022-09-09T01:35:53;17.83;88.81
70708;SHT30;58277;47.316;18.908;2022-09-09T01:38:21;17.80;88.89
70708;SHT30;58277;47.316;18.908;2022-09-09T01:40:46;17.73;89.25
70708;SHT30;58277;47.316;18.908;2022-09-09T01:43:10;17.62;88.85
70708;SHT30;58277;47.316;18.908;2022-09-09T01:45:33;17.66;89.10
70708;SHT30;58277;47.316;18.908;2022-09-09T01:47:56;17.71;89.23
70708;SHT30;58277;47.316;18.908;2022-09-09T01:50:40;17.75;89.23
70708;SHT30;58277;47.316;18.908;2022-09-09T01:53:04;17.78;89.15
70708;SHT30;58277;47.316;18.908;2022-09-09T01:55:34;17.72;88.78
70708;SHT30;58277;47.316;18.908;2022-09-09T02:03:37;17.66;89.29
70708;SHT30;58277;47.316;18.908;2022-09-09T02:06:30;17.56;89.37
70708;SHT30;58277;47.316;18.908;2022-09-09T02:09:06;17.61;89.28
70708;SHT30;58277;47.316;18.908;2022-09-09T02:11:30;17.63;89.10
70708;SHT30;58277;47.316;18.908;2022-09-09T02:14:10;17.66;89.17
70708;SHT30;58277;47.316;18.908;2022-09-09T02:16:41;17.66;89.48
70708;SHT30;58277;47.316;18.908;2022-09-09T02:21:54;17.63;89.17
70708;SHT30;58277;47.316;18.908;2022-09-09T02:24:17;17.58;88.91
70708;SHT30;58277;47.316;18.908;2022-09-09T02:26:51;17.63;88.45
70708;SHT30;58277;47.316;18.908;2022-09-09T02:29:19;17.61;89.07
70708;SHT30;58277;47.316;18.908;2022-09-09T02:31:46;17.59;89.27
70708;SHT30;58277;47.316;18.908;2022-09-09T02:34:15;17.61;88.87
70708;SHT30;58277;47.316;18.908;2022-09-09T02:36:41;17.61;88.90
70708;SHT30;58277;47.316;18.908;2022-09-09T02:39:07;17.63;88.58
70708;SHT30;58277;47.316;18.908;2022-09-09T02:41:37;17.66;88.96
70708;SHT30;58277;47.316;18.908;2022-09-09T02:44:00;17.69;88.74
70708;SHT30;58277;47.316;18.908;2022-09-09T02:49:00;17.66;89.25
70708;SHT30;58277;47.316;18.908;2022-09-09T02:51:52;17.62;88.80
70708;SHT30;58277;47.316;18.908;2022-09-09T02:54:27;17.65;88.28
70708;SHT30;58277;47.316;18.908;2022-09-09T02:57:02;17.56;89.08
70708;SHT30;58277;47.316;18.908;2022-09-09T02:59:31;17.59;88.95
70708;SHT30;58277;47.316;18.908;2022-09-09T03:01:54;17.55;88.95
70708;SHT30;58277;47.316;18.908;2022-09-09T03:04:17;17.51;88.91
70708;SHT30;58277;47.316;18.908;2022-09-09T03:06:40;17.53;89.00
70708;SHT30;58277;47.316;18.908;2022-09-09T03:09:11;17.62;88.48
70708;SHT30;58277;47.316;18.908;2022-09-09T03:11:34;17.56;88.43
70708;SHT30;58277;47.316;18.908;2022-09-09T03:13:58;17.58;88.80
70708;SHT30;58277;47.316;18.908;2022-09-09T03:16:23;17.52;89.07
70708;SHT30;58277;47.316;18.908;2022-09-09T03:18:48;17.46;89.12
70708;SHT30;58277;47.316;18.908;2022-09-09T03:21:11;17.36;89.52
70708;SHT30;58277;47.316;18.908;2022-09-09T03:23:35;17.35;89.86
70708;SHT30;58277;47.316;18.908;2022-09-09T03:25:58;17.35;89.49
70708;SHT30;58277;47.316;18.908;2022-09-09T03:28:30;17.30;89.69
70708;SHT30;58277;47.316;18.908;2022-09-09T03:31:02;17.28;89.56
70708;SHT30;58277;47.316;18.908;2022-09-09T03:33:29;17.27;89.70
70708;SHT30;58277;47.316;18.908;2022-09-09T03:35:51;17.24;89.72
70708;SHT30;58277;47.316;18.908;2022-09-09T03:38:15;17.20;89.85
70708;SHT30;58277;47.316;18.908;2022-09-09T03:40:38;17.20;90.02
70708;SHT30;58277;47.316;18.908;2022-09-09T03:43:02;17.10;90.32
70708;SHT30;58277;47.316;18.908;2022-09-09T03:45:25;17.02;90.54
70708;SHT30;58277;47.316;18.908;2022-09-09T03:47:48;16.91;90.80
70708;SHT30;58277;47.316;18.908;2022-09-09T03:50:11;16.90;91.20
70708;SHT30;58277;47.316;18.908;2022-09-09T03:52:40;16.96;91.08
70708;SHT30;58277;47.316;18.908;2022-09-09T03:55:10;16.99;90.96
70708;SHT30;58277;47.316;18.908;2022-09-09T03:57:34;16.88;91.05
70708;SHT30;58277;47.316;18.908;2022-09-09T04:00:04;16.84;91.22
70708;SHT30;58277;47.316;18.908;2022-09-09T04:02:37;16.77;91.56
70708;SHT30;58277;47.316;18.908;2022-09-09T04:05:01;16.81;91.67
70708;SHT30;58277;47.316;18.908;2022-09-09T04:07:24;16.83;91.74
70708;SHT30;58277;47.316;18.908;2022-09-09T04:09:47;16.84;91.80
70708;SHT30;58277;47.316;18.908;2022-09-09T04:12:10;16.80;91.52
70708;SHT30;58277;47.316;18.908;2022-09-09T04:14:35;16.91;91.05
70708;SHT30;58277;47.316;18.908;2022-09-09T04:17:00;16.99;90.50
70708;SHT30;58277;47.316;18.908;2022-09-09T04:19:23;17.02;90.13
70708;SHT30;58277;47.316;18.908;2022-09-09T04:21:46;16.99;90.02
70708;SHT30;58277;47.316;18.908;2022-09-09T04:24:11;17.06;89.72
70708;SHT30;58277;47.316;18.908;2022-09-09T04:26:35;17.03;89.70
70708;SHT30;58277;47.316;18.908;2022-09-09T04:28:59;17.04;89.68
70708;SHT30;58277;47.316;18.908;2022-09-09T04:31:23;17.13;89.10
70708;SHT30;58277;47.316;18.908;2022-09-09T04:33:52;17.11;89.44
70708;SHT30;58277;47.316;18.908;2022-09-09T04:36:16;17.10;89.14
70708;SHT30;58277;47.316;18.908;2022-09-09T04:38:41;17.11;89.33
70708;SHT30;58277;47.316;18.908;2022-09-09T04:41:04;17.14;89.21
70708;SHT30;58277;47.316;18.908;2022-09-09T04:43:29;17.14;89.02
70708;SHT30;58277;47.316;18.908;2022-09-09T04:45:53;17.21;88.81
70708;SHT30;58277;47.316;18.908;2022-09-09T04:48:19;17.35;88.27
70708;SHT30;58277;47.316;18.908;2022-09-09T04:50:53;17.49;87.84
70708;SHT30;58277;47.316;18.908;2022-09-09T04:53:16;17.55;87.62
70708;SHT30;58277;47.316;18.908;2022-09-09T04:55:39;17.56;87.22
70708;SHT30;58277;47.316;18.908;2022-09-09T04:58:06;17.61;87.46
70708;SHT30;58277;47.316;18.908;2022-09-09T05:00:28;17.59;87.30
70708;SHT30;58277;47.316;18.908;2022-09-09T05:02:51;17.59;87.31
70708;SHT30;58277;47.316;18.908;2022-09-09T05:05:14;17.61;87.09
70708;SHT30;58277;47.316;18.908;2022-09-09T05:07:37;17.61;87.34
70708;SHT30;58277;47.316;18.908;2022-09-09T05:10:06;17.55;87.65
70708;SHT30;58277;47.316;18.908;2022-09-09T05:12:29;17.79;86.92
70708;SHT30;58277;47.316;18.908;2022-09-09T05:14:53;17.86;86.46
70708;SHT30;58277;47.316;18.908;2022-09-09T05:17:17;17.91;86.17
70708;SHT30;58277;47.316;18.908;2022-09-09T05:19:40;18.06;86.18
70708;SHT30;58277;47.316;18.908;2022-09-09T05:22:03;18.18;85.55
70708;SHT30;58277;47.316;18.908;2022-09-09T05:24:34;18.33;84.61
70708;SHT30;58277;47.316;18.908;2022-09-09T05:26:58;18.43;83.98
70708;SHT30;58277;47.316;18.908;2022-09-09T05:29:22;18.52;84.43
70708;SHT30;58277;47.316;18.908;2022-09-09T05:31:45;18.61;82.89
70708;SHT30;58277;47.316;18.908;2022-09-09T05:34:13;18.68;83.34
70708;SHT30;58277;47.316;18.908;2022-09-09T05:36:36;18.75;83.12
70708;SHT30;58277;47.316;18.908;2022-09-09T05:38:58;18.91;82.90
70708;SHT30;58277;47.316;18.908;2022-09-09T05:41:22;19.02;82.13
70708;SHT30;58277;47.316;18.908;2022-09-09T05:43:48;19.16;82.28
70708;SHT30;58277;47.316;18.908;2022-09-09T05:46:18;19.44;81.93
70708;SHT30;58277;47.316;18.908;2022-09-09T05:48:45;20.09;79.92
70708;SHT30;58277;47.316;18.908;2022-09-09T05:51:16;20.61;77.86
70708;SHT30;58277;47.316;18.908;2022-09-09T05:53:40;20.77;77.08
70708;SHT30;58277;47.316;18.908;2022-09-09T05:56:05;21.13;75.27
70708;SHT30;58277;47.316;18.908;2022-09-09T05:58:33;21.64;73.21
70708;SHT30;58277;47.316;18.908;2022-09-09T06:03:29;20.92;74.76
70708;SHT30;58277;47.316;18.908;2022-09-09T06:06:03;20.57;76.37
70708;SHT30;58277;47.316;18.908;2022-09-09T06:08:28;20.30;76.84
70708;SHT30;58277;47.316;18.908;2022-09-09T06:10:51;20.13;78.04
70708;SHT30;58277;47.316;18.908;2022-09-09T06:13:14;19.98;78.23
70708;SHT30;58277;47.316;18.908;2022-09-09T06:15:37;20.04;78.48
70708;SHT30;58277;47.316;18.908;2022-09-09T06:18:00;19.98;77.96
70708;SHT30;58277;47.316;18.908;2022-09-09T06:20:22;20.05;78.55
70708;SHT30;58277;47.316;18.908;2022-09-09T06:22:45;20.05;78.89
70708;SHT30;58277;47.316;18.908;2022-09-09T06:25:09;20.16;78.64
70708;SHT30;58277;47.316;18.908;2022-09-09T06:27:33;20.23;77.94
70708;SHT30;58277;47.316;18.908;2022-09-09T06:29:56;20.32;77.30
70708;SHT30;58277;47.316;18.908;2022-09-09T06:32:19;20.25;77.12
70708;SHT30;58277;47.316;18.908;2022-09-09T06:34:41;20.40;77.07
70708;SHT30;58277;47.316;18.908;2022-09-09T06:37:04;20.43;77.07
70708;SHT30;58277;47.316;18.908;2022-09-09T06:39:42;20.40;77.47
70708;SHT30;58277;47.316;18.908;2022-09-09T06:42:05;20.30;77.69
70708;SHT30;58277;47.316;18.908;2022-09-09T06:44:41;20.25;77.56
70708;SHT30;58277;47.316;18.908;2022-09-09T06:47:08;20.25;77.62
70708;SHT30;58277;47.316;18.908;2022-09-09T06:49:31;20.40;77.82
70708;SHT30;58277;47.316;18.908;2022-09-09T06:51:55;20.46;77.71
70708;SHT30;58277;47.316;18.908;2022-09-09T06:54:18;20.46;77.39
70708;SHT30;58277;47.316;18.908;2022-09-09T06:56:42;20.60;77.17
70708;SHT30;58277;47.316;18.908;2022-09-09T06:59:12;20.68;76.96
70708;SHT30;58277;47.316;18.908;2022-09-09T07:01:37;20.56;77.10
70708;SHT30;58277;47.316;18.908;2022-09-09T07:04:04;20.50;77.72
70708;SHT30;58277;47.316;18.908;2022-09-09T07:06:33;20.30;78.20
70708;SHT30;58277;47.316;18.908;2022-09-09T07:08:59;20.16;78.08
70708;SHT30;58277;47.316;18.908;2022-09-09T07:11:26;20.17;78.90
70708;SHT30;58277;47.316;18.908;2022-09-09T07:13:50;20.19;78.27
70708;SHT30;58277;47.316;18.908;2022-09-09T07:16:16;20.33;77.55
70708;SHT30;58277;47.316;18.908;2022-09-09T07:18:40;20.39;77.76
70708;SHT30;58277;47.316;18.908;2022-09-09T07:21:05;20.34;77.58
70708;SHT30;58277;47.316;18.908;2022-09-09T07:23:29;20.29;77.54
70708;SHT30;58277;47.316;18.908;2022-09-09T07:25:59;20.17;77.36
70708;SHT30;58277;47.316;18.908;2022-09-09T07:28:24;20.25;77.47
70708;SHT30;58277;47.316;18.908;2022-09-09T07:30:59;20.23;77.13
70708;SHT30;58277;47.316;18.908;2022-09-09T07:33:22;20.25;78.08
70708;SHT30;58277;47.316;18.908;2022-09-09T07:35:47;20.23;78.33
70708;SHT30;58277;47.316;18.908;2022-09-09T07:38:10;20.47;75.06
70708;SHT30;58277;47.316;18.908;2022-09-09T07:40:33;20.91;75.09
70708;SHT30;58277;47.316;18.908;2022-09-09T07:42:56;21.16;74.86
70708;SHT30;58277;47.316;18.908;2022-09-09T07:45:20;21.25;74.37
70708;SHT30;58277;47.316;18.908;2022-09-09T07:47:42;21.25;74.13
70708;SHT30;58277;47.316;18.908;2022-09-09T07:50:06;21.25;74.69
70708;SHT30;58277;47.316;18.908;2022-09-09T07:52:30;21.28;73.68
70708;SHT30;58277;47.316;18.908;2022-09-09T07:54:56;21.19;74.46
70708;SHT30;58277;47.316;18.908;2022-09-09T07:57:19;20.94;72.87
70708;SHT30;58277;47.316;18.908;2022-09-09T07:59:43;20.95;74.49
70708;SHT30;58277;47.316;18.908;2022-09-09T08:02:06;20.84;75.10
70708;SHT30;58277;47.316;18.908;2022-09-09T08:04:30;20.99;74.19
70708;SHT30;58277;47.316;18.908;2022-09-09T08:06:58;20.96;74.01
70708;SHT30;58277;47.316;18.908;2022-09-09T08:09:22;21.12;74.01
70708;SHT30;58277;47.316;18.908;2022-09-09T08:11:48;21.22;73.38
70708;SHT30;58277;47.316;18.908;2022-09-09T08:14:12;20.98;73.64
70708;SHT30;58277;47.316;18.908;2022-09-09T08:16:41;21.18;74.22
70708;SHT30;58277;47.316;18.908;2022-09-09T08:19:05;21.29;73.92
70708;SHT30;58277;47.316;18.908;2022-09-09T08:21:31;21.40;72.81
70708;SHT30;58277;47.316;18.908;2022-09-09T08:23:55;21.46;72.69
70708;SHT30;58277;47.316;18.908;2022-09-09T08:26:25;21.59;72.70
70708;SHT30;58277;47.316;18.908;2022-09-09T08:28:51;21.81;71.92
70708;SHT30;58277;47.316;18.908;2022-09-09T08:31:17;21.78;71.65
70708;SHT30;58277;47.316;18.908;2022-09-09T08:33:41;21.61;70.16
70708;SHT30;58277;47.316;18.908;2022-09-09T08:36:06;21.77;70.51
70708;SHT30;58277;47.316;18.908;2022-09-09T08:38:30;21.90;71.85
70708;SHT30;58277;47.316;18.908;2022-09-09T08:40:58;22.00;71.18
70708;SHT30;58277;47.316;18.908;2022-09-09T08:43:23;22.09;71.35
70708;SHT30;58277;47.316;18.908;2022-09-09T08:45:58;22.08;69.66
70708;SHT30;58277;47.316;18.908;2022-09-09T08:48:42;22.31;70.18
70708;SHT30;58277;47.316;18.908;2022-09-09T08:51:06;22.46;69.65
70708;SHT30;58277;47.316;18.908;2022-09-09T08:53:39;22.36;70.90
70708;SHT30;58277;47.316;18.908;2022-09-09T08:56:12;22.52;68.56
70708;SHT30;58277;47.316;18.908;2022-09-09T08:58:49;22.56;67.71
70708;SHT30;58277;47.316;18.908;2022-09-09T09:01:44;22.69;68.15
70708;SHT30;58277;47.316;18.908;2022-09-09T09:04:34;22.87;67.72
70708;SHT30;58277;47.316;18.908;2022-09-09T09:12:53;23.22;64.44
70708;SHT30;58277;47.316;18.908;2022-09-09T09:15:24;23.32;65.07
70708;SHT30;58277;47.316;18.908;2022-09-09T09:17:53;23.11;61.89
70708;SHT30;58277;47.316;18.908;2022-09-09T09:20:24;23.29;63.70
70708;SHT30;58277;47.316;18.908;2022-09-09T09:22:54;23.38;63.65
70708;SHT30;58277;47.316;18.908;2022-09-09T09:25:23;23.38;62.33
70708;SHT30;58277;47.316;18.908;2022-09-09T09:30:39;23.69;63.09
70708;SHT30;58277;47.316;18.908;2022-09-09T09:35:34;23.69;62.70
70708;SHT30;58277;47.316;18.908;2022-09-09T09:38:24;23.69;58.93
70708;SHT30;58277;47.316;18.908;2022-09-09T09:41:08;23.63;62.74
70708;SHT30;58277;47.316;18.908;2022-09-09T09:43:53;23.80;61.28
70708;SHT30;58277;47.316;18.908;2022-09-09T09:46:21;23.83;56.32
70708;SHT30;58277;47.316;18.908;2022-09-09T09:49:03;23.99;57.05
70708;SHT30;58277;47.316;18.908;2022-09-09T09:51:30;24.09;56.55
70708;SHT30;58277;47.316;18.908;2022-09-09T09:56:36;24.30;57.31
70708;SHT30;58277;47.316;18.908;2022-09-09T09:59:02;24.18;56.02
70708;SHT30;58277;47.316;18.908;2022-09-09T10:01:39;24.38;57.03
70708;SHT30;58277;47.316;18.908;2022-09-09T10:04:21;24.28;53.13
70708;SHT30;58277;47.316;18.908;2022-09-09T10:06:49;24.42;56.28
70708;SHT30;58277;47.316;18.908;2022-09-09T10:09:41;24.60;55.33
70708;SHT30;58277;47.316;18.908;2022-09-09T10:12:07;24.52;54.22
70708;SHT30;58277;47.316;18.908;2022-09-09T10:22:51;24.79;47.87
70708;SHT30;58277;47.316;18.908;2022-09-09T10:25:34;24.93;50.31
70708;SHT30;58277;47.316;18.908;2022-09-09T10:28:24;24.96;50.95
70708;SHT30;58277;47.316;18.908;2022-09-09T10:30:57;24.98;48.25
70708;SHT30;58277;47.316;18.908;2022-09-09T10:33:37;24.95;48.92
70708;SHT30;58277;47.316;18.908;2022-09-09T10:36:12;25.00;48.99
70708;SHT30;58277;47.316;18.908;2022-09-09T10:38:42;24.85;44.98
70708;SHT30;58277;47.316;18.908;2022-09-09T10:47:14;25.19;46.69
70708;SHT30;58277;47.316;18.908;2022-09-09T10:55:42;25.33;46.46
70708;SHT30;58277;47.316;18.908;2022-09-09T10:58:12;25.48;45.24
70708;SHT30;58277;47.316;18.908;2022-09-09T11:00:39;25.67;46.43
70708;SHT30;58277;47.316;18.908;2022-09-09T11:03:03;25.75;41.99
70708;SHT30;58277;47.316;18.908;2022-09-09T11:05:44;25.82;42.47
70708;SHT30;58277;47.316;18.908;2022-09-09T11:08:13;25.89;41.31
70708;SHT30;58277;47.316;18.908;2022-09-09T11:18:46;25.74;42.39
70708;SHT30;58277;47.316;18.908;2022-09-09T11:21:22;25.74;42.64
70708;SHT30;58277;47.316;18.908;2022-09-09T11:23:50;25.67;42.37
70708;SHT30;58277;47.316;18.908;2022-09-09T11:26:25;25.88;38.35
70708;SHT30;58277;47.316;18.908;2022-09-09T11:37:17;26.23;41.85
70708;SHT30;58277;47.316;18.908;2022-09-09T11:44:37;26.70;42.05
70708;SHT30;58277;47.316;18.908;2022-09-09T11:47:25;26.73;41.42
70708;SHT30;58277;47.316;18.908;2022-09-09T11:52:42;27.31;41.25
70708;SHT30;58277;47.316;18.908;2022-09-09T11:57:46;27.79;38.16
70708;SHT30;58277;47.316;18.908;2022-09-09T12:02:53;27.64;38.97
70708;SHT30;58277;47.316;18.908;2022-09-09T12:05:16;27.50;36.39
70708;SHT30;58277;47.316;18.908;2022-09-09T12:07:56;27.32;37.55
70708;SHT30;58277;47.316;18.908;2022-09-09T12:13:19;26.98;36.95
70708;SHT30;58277;47.316;18.908;2022-09-09T12:18:18;26.78;39.64
70708;SHT30;58277;47.316;18.908;2022-09-09T12:29:06;26.49;37.24
70708;SHT30;58277;47.316;18.908;2022-09-09T12:32:02;26.51;38.52
70708;SHT30;58277;47.316;18.908;2022-09-09T12:36:49;26.43;35.65
70708;SHT30;58277;47.316;18.908;2022-09-09T12:39:24;26.33;35.96
70708;SHT30;58277;47.316;18.908;2022-09-09T12:41:52;26.37;37.50
70708;SHT30;58277;47.316;18.908;2022-09-09T12:44:19;26.73;38.19
70708;SHT30;58277;47.316;18.908;2022-09-09T12:46:45;26.87;37.39
70708;SHT30;58277;47.316;18.908;2022-09-09T12:49:38;27.28;37.36
70708;SHT30;58277;47.316;18.908;2022-09-09T12:52:07;27.39;36.37
70708;SHT30;58277;47.316;18.908;2022-09-09T12:54:36;27.35;34.13
70708;SHT30;58277;47.316;18.908;2022-09-09T12:56:59;27.59;35.55
70708;SHT30;58277;47.316;18.908;2022-09-09T12:59:25;27.63;35.81
70708;SHT30;58277;47.316;18.908;2022-09-09T13:01:55;27.59;35.10
70708;SHT30;58277;47.316;18.908;2022-09-09T13:04:21;27.11;34.60
70708;SHT30;58277;47.316;18.908;2022-09-09T13:06:47;26.61;34.96
70708;SHT30;58277;47.316;18.908;2022-09-09T13:09:09;26.68;38.35
70708;SHT30;58277;47.316;18.908;2022-09-09T13:11:38;26.53;39.01
70708;SHT30;58277;47.316;18.908;2022-09-09T13:14:02;26.44;38.30
70708;SHT30;58277;47.316;18.908;2022-09-09T13:16:34;26.30;39.81
70708;SHT30;58277;47.316;18.908;2022-09-09T13:19:17;26.25;40.37
70708;SHT30;58277;47.316;18.908;2022-09-09T13:21:40;26.33;39.75
70708;SHT30;58277;47.316;18.908;2022-09-09T13:24:05;26.39;40.39
70708;SHT30;58277;47.316;18.908;2022-09-09T13:26:30;26.50;40.97
70708;SHT30;58277;47.316;18.908;2022-09-09T13:28:53;26.54;41.06
70708;SHT30;58277;47.316;18.908;2022-09-09T13:31:28;26.40;38.36
70708;SHT30;58277;47.316;18.908;2022-09-09T13:33:51;26.43;39.67
70708;SHT30;58277;47.316;18.908;2022-09-09T13:36:15;26.59;39.40
70708;SHT30;58277;47.316;18.908;2022-09-09T13:41:10;26.76;39.70
70708;SHT30;58277;47.316;18.908;2022-09-09T13:43:42;27.01;40.54
70708;SHT30;58277;47.316;18.908;2022-09-09T13:49:01;27.39;38.69
70708;SHT30;58277;47.316;18.908;2022-09-09T13:51:34;27.35;37.86
70708;SHT30;58277;47.316;18.908;2022-09-09T13:53:57;27.45;38.88
70708;SHT30;58277;47.316;18.908;2022-09-09T13:56:21;27.52;38.46
70708;SHT30;58277;47.316;18.908;2022-09-09T13:58:44;27.29;39.00
70708;SHT30;58277;47.316;18.908;2022-09-09T14:01:06;27.18;39.05
70708;SHT30;58277;47.316;18.908;2022-09-09T14:03:29;27.09;38.86
70708;SHT30;58277;47.316;18.908;2022-09-09T14:05:53;26.97;38.58
70708;SHT30;58277;47.316;18.908;2022-09-09T14:08:22;26.88;39.69
70708;SHT30;58277;47.316;18.908;2022-09-09T14:10:46;27.05;39.17
70708;SHT30;58277;47.316;18.908;2022-09-09T14:13:08;27.22;38.55
70708;SHT30;58277;47.316;18.908;2022-09-09T14:15:31;27.39;38.43
70708;SHT30;58277;47.316;18.908;2022-09-09T14:17:53;27.25;37.37
70708;SHT30;58277;47.316;18.908;2022-09-09T14:20:16;27.09;38.44
70708;SHT30;58277;47.316;18.908;2022-09-09T14:22:40;27.35;38.91
70708;SHT30;58277;47.316;18.908;2022-09-09T14:25:03;27.21;38.52
70708;SHT30;58277;47.316;18.908;2022-09-09T14:27:26;27.35;39.01
70708;SHT30;58277;47.316;18.908;2022-09-09T14:29:49;27.14;38.05
70708;SHT30;58277;47.316;18.908;2022-09-09T14:32:12;26.90;38.53
70708;SHT30;58277;47.316;18.908;2022-09-09T14:34:34;26.83;39.16
70708;SHT30;58277;47.316;18.908;2022-09-09T14:36:58;26.68;39.71
70708;SHT30;58277;47.316;18.908;2022-09-09T14:39:20;26.78;40.49
70708;SHT30;58277;47.316;18.908;2022-09-09T14:41:43;26.77;41.18
70708;SHT30;58277;47.316;18.908;2022-09-09T14:44:06;26.63;41.29
70708;SHT30;58277;47.316;18.908;2022-09-09T14:46:28;26.64;41.46
70708;SHT30;58277;47.316;18.908;2022-09-09T14:48:52;26.68;41.32
70708;SHT30;58277;47.316;18.908;2022-09-09T14:51:23;26.54;42.57
70708;SHT30;58277;47.316;18.908;2022-09-09T14:53:46;26.54;42.73
70708;SHT30;58277;47.316;18.908;2022-09-09T14:56:11;26.44;41.65
70708;SHT30;58277;47.316;18.908;2022-09-09T14:58:35;26.56;42.35
70708;SHT30;58277;47.316;18.908;2022-09-09T15:01:05;26.64;41.54
70708;SHT30;58277;47.316;18.908;2022-09-09T15:03:28;26.80;41.61
70708;SHT30;58277;47.316;18.908;2022-09-09T15:05:50;26.98;41.19
70708;SHT30;58277;47.316;18.908;2022-09-09T15:08:15;27.12;40.35
70708;SHT30;58277;47.316;18.908;2022-09-09T15:10:38;27.12;39.70
70708;SHT30;58277;47.316;18.908;2022-09-09T15:13:01;27.11;39.14
70708;SHT30;58277;47.316;18.908;2022-09-09T15:15:23;27.01;39.59
70708;SHT30;58277;47.316;18.908;2022-09-09T15:17:46;26.65;40.78
70708;SHT30;58277;47.316;18.908;2022-09-09T15:20:09;26.32;40.60
70708;SHT30;58277;47.316;18.908;2022-09-09T15:22:32;26.35;41.11
70708;SHT30;58277;47.316;18.908;2022-09-09T15:24:56;26.09;40.63
70708;SHT30;58277;47.316;18.908;2022-09-09T15:27:18;26.15;43.20
70708;SHT30;58277;47.316;18.908;2022-09-09T15:29:41;26.08;42.71
70708;SHT30;58277;47.316;18.908;2022-09-09T15:32:04;25.95;43.12
70708;SHT30;58277;47.316;18.908;2022-09-09T15:34:27;25.84;43.55
70708;SHT30;58277;47.316;18.908;2022-09-09T15:36:50;25.75;43.18
70708;SHT30;58277;47.316;18.908;2022-09-09T15:39:14;25.70;43.69
70708;SHT30;58277;47.316;18.908;2022-09-09T15:41:40;25.65;43.85
70708;SHT30;58277;47.316;18.908;2022-09-09T15:44:02;25.65;44.10
70708;SHT30;58277;47.316;18.908;2022-09-09T15:46:46;25.68;43.99
70708;SHT30;58277;47.316;18.908;2022-09-09T15:49:13;25.63;44.64
70708;SHT30;58277;47.316;18.908;2022-09-09T15:51:37;25.57;44.97
70708;SHT30;58277;47.316;18.908;2022-09-09T15:54:05;25.58;44.94
70708;SHT30;58277;47.316;18.908;2022-09-09T15:56:29;25.55;44.63
70708;SHT30;58277;47.316;18.908;2022-09-09T15:58:55;25.50;45.00
70708;SHT30;58277;47.316;18.908;2022-09-09T16:01:19;25.48;44.91
70708;SHT30;58277;47.316;18.908;2022-09-09T16:03:42;25.41;45.62
70708;SHT30;58277;47.316;18.908;2022-09-09T16:06:09;25.40;45.54
70708;SHT30;58277;47.316;18.908;2022-09-09T16:08:36;25.40;45.92
70708;SHT30;58277;47.316;18.908;2022-09-09T16:11:11;25.31;46.71
70708;SHT30;58277;47.316;18.908;2022-09-09T16:13:36;25.27;46.87
70708;SHT30;58277;47.316;18.908;2022-09-09T16:15:59;25.20;47.24
70708;SHT30;58277;47.316;18.908;2022-09-09T16:18:21;25.17;47.36
70708;SHT30;58277;47.316;18.908;2022-09-09T16:20:53;25.16;47.17
70708;SHT30;58277;47.316;18.908;2022-09-09T16:23:16;25.13;46.95
70708;SHT30;58277;47.316;18.908;2022-09-09T16:25:39;25.10;47.35
70708;SHT30;58277;47.316;18.908;2022-09-09T16:28:02;24.99;48.13
70708;SHT30;58277;47.316;18.908;2022-09-09T16:30:24;24.86;48.63
70708;SHT30;58277;47.316;18.908;2022-09-09T16:32:47;24.72;49.20
70708;SHT30;58277;47.316;18.908;2022-09-09T16:35:09;24.57;49.55
70708;SHT30;58277;47.316;18.908;2022-09-09T16:37:32;24.34;50.26
70708;SHT30;58277;47.316;18.908;2022-09-09T16:39:56;24.27;50.72
70708;SHT30;58277;47.316;18.908;2022-09-09T16:42:18;24.02;51.65
70708;SHT30;58277;47.316;18.908;2022-09-09T16:44:45;23.87;52.28
70708;SHT30;58277;47.316;18.908;2022-09-09T16:47:08;23.72;52.92
70708;SHT30;58277;47.316;18.908;2022-09-09T16:49:30;23.68;53.82
70708;SHT30;58277;47.316;18.908;2022-09-09T16:51:53;23.48;54.52
70708;SHT30;58277;47.316;18.908;2022-09-09T16:54:16;23.45;54.63
70708;SHT30;58277;47.316;18.908;2022-09-09T16:56:42;23.29;54.99
70708;SHT30;58277;47.316;18.908;2022-09-09T16:59:08;23.27;54.99
70708;SHT30;58277;47.316;18.908;2022-09-09T17:01:34;23.25;55.68
70708;SHT30;58277;47.316;18.908;2022-09-09T17:04:01;23.15;55.48
70708;SHT30;58277;47.316;18.908;2022-09-09T17:06:24;23.08;55.86
70708;SHT30;58277;47.316;18.908;2022-09-09T17:08:47;22.97;56.37
70708;SHT30;58277;47.316;18.908;2022-09-09T17:11:13;22.86;57.31
70708;SHT30;58277;47.316;18.908;2022-09-09T17:13:36;22.84;57.20
70708;SHT30;58277;47.316;18.908;2022-09-09T17:16:03;22.87;56.75
70708;SHT30;58277;47.316;18.908;2022-09-09T17:18:27;22.80;57.22
70708;SHT30;58277;47.316;18.908;2022-09-09T17:20:50;22.72;58.20
70708;SHT30;58277;47.316;18.908;2022-09-09T17:23:13;22.62;59.37
70708;SHT30;58277;47.316;18.908;2022-09-09T17:25:37;22.56;58.79
70708;SHT30;58277;47.316;18.908;2022-09-09T17:28:01;22.48;59.11
70708;SHT30;58277;47.316;18.908;2022-09-09T17:30:26;22.41;59.05
70708;SHT30;58277;47.316;18.908;2022-09-09T17:32:49;22.34;60.13